sensor_id;sensor_type;location;lat;lon;timestamp;temperature;humidity
67799;SHT30;54596;43.216;27.904;2023-09-19T00:00:20;19.12;81.48
67799;SHT30;54596;43.216;27.904;2023-09-19T00:02:52;19.11;81.44
67799;SHT30;54596;43.216;27.904;2023-09-19T00:05:18;19.13;81.28
67799;SHT30;54596;43.216;27.904;2023-09-19T00:07:44;19.11;81.09
67799;SHT30;54596;43.216;27.904;2023-09-19T00:10:10;19.09;81.01
67799;SHT30;54596;43.216;27.904;2023-09-19T00:12:35;19.05;80.79
67799;SHT30;54596;43.216;27.904;2023-09-19T00:15:01;18.99;80.84
67799;SHT30;54596;43.216;27.904;2023-09-19T00:17:30;18.95;80.96
67799;SHT30;54596;43.216;27.904;2023-09-19T00:19:57;18.94;80.73
67799;SHT30;54596;43.216;27.904;2023-09-19T00:22:23;18.84;80.86
67799;SHT30;54596;43.216;27.904;2023-09-19T00:24:51;18.79;81.02
67799;SHT30;54596;43.216;27.904;2023-09-19T00:27:17;18.75;81.13
67799;SHT30;54596;43.216;27.904;2023-09-19T00:29:43;18.74;81.25
67799;SHT30;54596;43.216;27.904;2023-09-19T00:32:09;18.77;81.26
67799;SHT30;54596;43.216;27.904;2023-09-19T00:34:34;18.74;81.34
67799;SHT30;54596;43.216;27.904;2023-09-19T00:37:00;18.71;81.49
67799;SHT30;54596;43.216;27.904;2023-09-19T00:39:26;18.71;81.65
67799;SHT30;54596;43.216;27.904;2023-09-19T00:41:56;18.68;81.97
67799;SHT30;54596;43.216;27.904;2023-09-19T00:44:22;18.65;82.12
67799;SHT30;54596;43.216;27.904;2023-09-19T00:46:49;18.63;82.36
67799;SHT30;54596;43.216;27.904;2023-09-19T00:49:16;18.58;82.55
67799;SHT30;54596;43.216;27.904;2023-09-19T00:51:42;18.56;82.72
67799;SHT30;54596;43.216;27.904;2023-09-19T00:54:12;18.49;82.85
67799;SHT30;54596;43.216;27.904;2023-09-19T00:56:43;18.47;82.68
67799;SHT30;54596;43.216;27.904;2023-09-19T00:59:10;18.43;82.58
67799;SHT30;54596;43.216;27.904;2023-09-19T01:01:37;18.39;82.55
67799;SHT30;54596;43.216;27.904;2023-09-19T01:04:05;18.33;82.67
67799;SHT30;54596;43.216;27.904;2023-09-19T01:06:31;18.32;82.83
67799;SHT30;54596;43.216;27.904;2023-09-19T01:08:57;18.30;82.87
67799;SHT30;54596;43.216;27.904;2023-09-19T01:11:35;18.28;82.91
67799;SHT30;54596;43.216;27.904;2023-09-19T01:16:49;18.25;83.04
67799;SHT30;54596;43.216;27.904;2023-09-19T01:22:18;18.22;83.52
67799;SHT30;54596;43.216;27.904;2023-09-19T01:30:33;18.15;83.82
67799;SHT30;54596;43.216;27.904;2023-09-19T01:33:01;18.12;84.04
67799;SHT30;54596;43.216;27.904;2023-09-19T01:35:29;18.08;84.21
67799;SHT30;54596;43.216;27.904;2023-09-19T01:37:54;18.06;84.37
67799;SHT30;54596;43.216;27.904;2023-09-19T01:40:21;18.06;84.45
67799;SHT30;54596;43.216;27.904;2023-09-19T01:51:09;18.01;84.76
67799;SHT30;54596;43.216;27.904;2023-09-19T01:53:50;18.01;84.82
67799;SHT30;54596;43.216;27.904;2023-09-19T01:56:24;17.97;84.91
67799;SHT30;54596;43.216;27.904;2023-09-19T01:58:53;17.97;84.98
67799;SHT30;54596;43.216;27.904;2023-09-19T02:01:24;17.98;84.95
67799;SHT30;54596;43.216;27.904;2023-09-19T02:03:50;17.98;84.87
67799;SHT30;54596;43.216;27.904;2023-09-19T02:06:16;17.97;84.91
67799;SHT30;54596;43.216;27.904;2023-09-19T02:08:43;17.94;84.94
67799;SHT30;54596;43.216;27.904;2023-09-19T02:11:10;17.89;84.99
67799;SHT30;54596;43.216;27.904;2023-09-19T02:13:36;17.85;85.10
67799;SHT30;54596;43.216;27.904;2023-09-19T02:16:03;17.82;85.10
67799;SHT30;54596;43.216;27.904;2023-09-19T02:18:30;17.82;85.05
67799;SHT30;54596;43.216;27.904;2023-09-19T02:20:56;17.80;85.19
67799;SHT30;54596;43.216;27.904;2023-09-19T02:23:24;17.73;85.15
67799;SHT30;54596;43.216;27.904;2023-09-19T02:25:53;17.71;85.22
67799;SHT30;54596;43.216;27.904;2023-09-19T02:28:19;17.70;85.16
67799;SHT30;54596;43.216;27.904;2023-09-19T02:30:48;17.70;85.05
67799;SHT30;54596;43.216;27.904;2023-09-19T02:33:14;17.67;84.96
67799;SHT30;54596;43.216;27.904;2023-09-19T02:35:40;17.64;85.32
67799;SHT30;54596;43.216;27.904;2023-09-19T02:38:05;17.57;85.49
67799;SHT30;54596;43.216;27.904;2023-09-19T02:40:37;17.55;85.60
67799;SHT30;54596;43.216;27.904;2023-09-19T02:43:03;17.54;85.70
67799;SHT30;54596;43.216;27.904;2023-09-19T02:45:30;17.54;85.97
67799;SHT30;54596;43.216;27.904;2023-09-19T02:47:56;17.53;86.05
67799;SHT30;54596;43.216;27.904;2023-09-19T02:50:22;17.53;86.09
67799;SHT30;54596;43.216;27.904;2023-09-19T02:52:48;17.50;86.22
67799;SHT30;54596;43.216;27.904;2023-09-19T02:55:18;17.47;86.30
67799;SHT30;54596;43.216;27.904;2023-09-19T02:57:51;17.40;86.57
67799;SHT30;54596;43.216;27.904;2023-09-19T03:00:18;17.40;86.57
67799;SHT30;54596;43.216;27.904;2023-09-19T03:02:51;17.30;86.86
67799;SHT30;54596;43.216;27.904;2023-09-19T03:05:18;17.29;87.06
67799;SHT30;54596;43.216;27.904;2023-09-19T03:07:44;17.27;87.16
67799;SHT30;54596;43.216;27.904;2023-09-19T03:10:12;17.22;87.31
67799;SHT30;54596;43.216;27.904;2023-09-19T03:12:38;17.18;87.37
67799;SHT30;54596;43.216;27.904;2023-09-19T03:15:05;17.19;87.68
67799;SHT30;54596;43.216;27.904;2023-09-19T03:17:31;17.16;87.54
67799;SHT30;54596;43.216;27.904;2023-09-19T03:19:57;17.14;87.76
67799;SHT30;54596;43.216;27.904;2023-09-19T03:22:23;17.14;87.71
67799;SHT30;54596;43.216;27.904;2023-09-19T03:24:50;17.15;87.62
67799;SHT30;54596;43.216;27.904;2023-09-19T03:27:15;17.12;87.60
67799;SHT30;54596;43.216;27.904;2023-09-19T03:29:42;17.09;87.73
67799;SHT30;54596;43.216;27.904;2023-09-19T03:32:08;17.07;87.69
67799;SHT30;54596;43.216;27.904;2023-09-19T03:34:39;17.08;87.71
67799;SHT30;54596;43.216;27.904;2023-09-19T03:37:11;17.07;87.80
67799;SHT30;54596;43.216;27.904;2023-09-19T03:39:36;17.07;87.92
67799;SHT30;54596;43.216;27.904;2023-09-19T03:42:02;17.04;87.70
67799;SHT30;54596;43.216;27.904;2023-09-19T03:44:30;16.98;87.63
67799;SHT30;54596;43.216;27.904;2023-09-19T03:46:56;16.98;87.59
67799;SHT30;54596;43.216;27.904;2023-09-19T03:49:22;16.96;87.72
67799;SHT30;54596;43.216;27.904;2023-09-19T03:51:47;16.96;87.57
67799;SHT30;54596;43.216;27.904;2023-09-19T03:54:14;16.95;87.56
67799;SHT30;54596;43.216;27.904;2023-09-19T03:56:39;16.92;87.44
67799;SHT30;54596;43.216;27.904;2023-09-19T03:59:05;16.87;87.24
67799;SHT30;54596;43.216;27.904;2023-09-19T04:01:30;16.84;87.16
67799;SHT30;54596;43.216;27.904;2023-09-19T04:03:58;16.85;87.23
67799;SHT30;54596;43.216;27.904;2023-09-19T04:06:24;16.84;87.19
67799;SHT30;54596;43.216;27.904;2023-09-19T04:08:49;16.82;87.05
67799;SHT30;54596;43.216;27.904;2023-09-19T04:11:15;16.85;87.14
67799;SHT30;54596;43.216;27.904;2023-09-19T04:13:40;16.87;87.14
67799;SHT30;54596;43.216;27.904;2023-09-19T04:16:06;16.87;87.07
67799;SHT30;54596;43.216;27.904;2023-09-19T04:18:35;16.88;86.95
67799;SHT30;54596;43.216;27.904;2023-09-19T04:21:03;16.89;86.98
67799;SHT30;54596;43.216;27.904;2023-09-19T04:23:31;16.92;86.96
67799;SHT30;54596;43.216;27.904;2023-09-19T04:25:57;16.95;87.01
67799;SHT30;54596;43.216;27.904;2023-09-19T04:28:22;16.99;87.04
67799;SHT30;54596;43.216;27.904;2023-09-19T04:30:49;17.02;87.03
67799;SHT30;54596;43.216;27.904;2023-09-19T04:33:15;17.09;86.97
67799;SHT30;54596;43.216;27.904;2023-09-19T04:35:41;17.09;87.05
67799;SHT30;54596;43.216;27.904;2023-09-19T04:38:08;17.15;87.11
67799;SHT30;54596;43.216;27.904;2023-09-19T04:40:34;17.16;87.27
67799;SHT30;54596;43.216;27.904;2023-09-19T04:43:00;17.20;87.44
67799;SHT30;54596;43.216;27.904;2023-09-19T04:45:27;17.27;87.51
67799;SHT30;54596;43.216;27.904;2023-09-19T04:47:53;17.32;87.48
67799;SHT30;54596;43.216;27.904;2023-09-19T04:50:19;17.36;87.49
67799;SHT30;54596;43.216;27.904;2023-09-19T04:52:49;17.40;87.49
67799;SHT30;54596;43.216;27.904;2023-09-19T04:55:16;17.47;87.42
67799;SHT30;54596;43.216;27.904;2023-09-19T04:57:46;17.53;87.04
67799;SHT30;54596;43.216;27.904;2023-09-19T05:00:22;17.55;86.83
67799;SHT30;54596;43.216;27.904;2023-09-19T05:02:50;17.63;86.51
67799;SHT30;54596;43.216;27.904;2023-09-19T05:05:17;17.69;86.31
67799;SHT30;54596;43.216;27.904;2023-09-19T05:07:45;17.71;85.92
67799;SHT30;54596;43.216;27.904;2023-09-19T05:10:11;17.75;86.00
67799;SHT30;54596;43.216;27.904;2023-09-19T05:12:37;17.78;85.73
67799;SHT30;54596;43.216;27.904;2023-09-19T05:15:04;17.85;85.72
67799;SHT30;54596;43.216;27.904;2023-09-19T05:17:30;17.89;85.76
67799;SHT30;54596;43.216;27.904;2023-09-19T05:19:57;17.97;85.52
67799;SHT30;54596;43.216;27.904;2023-09-19T05:22:23;17.99;85.23
67799;SHT30;54596;43.216;27.904;2023-09-19T05:24:50;18.06;84.97
67799;SHT30;54596;43.216;27.904;2023-09-19T05:27:16;18.15;84.71
67799;SHT30;54596;43.216;27.904;2023-09-19T05:29:43;18.23;84.42
67799;SHT30;54596;43.216;27.904;2023-09-19T05:32:10;18.32;84.20
67799;SHT30;54596;43.216;27.904;2023-09-19T05:34:36;18.43;83.89
67799;SHT30;54596;43.216;27.904;2023-09-19T05:37:02;18.54;83.52
67799;SHT30;54596;43.216;27.904;2023-09-19T05:39:28;18.75;83.32
67799;SHT30;54596;43.216;27.904;2023-09-19T05:41:53;19.03;82.65
67799;SHT30;54596;43.216;27.904;2023-09-19T05:44:19;20.29;79.97
67799;SHT30;54596;43.216;27.904;2023-09-19T05:46:44;21.84;75.87
67799;SHT30;54596;43.216;27.904;2023-09-19T05:49:13;23.17;71.84
67799;SHT30;54596;43.216;27.904;2023-09-19T05:51:38;24.37;68.81
67799;SHT30;54596;43.216;27.904;2023-09-19T05:54:04;25.27;66.63
67799;SHT30;54596;43.216;27.904;2023-09-19T05:56:30;26.26;64.50
67799;SHT30;54596;43.216;27.904;2023-09-19T05:58:56;26.98;62.88
67799;SHT30;54596;43.216;27.904;2023-09-19T06:01:21;27.61;61.51
67799;SHT30;54596;43.216;27.904;2023-09-19T06:03:47;28.13;60.49
67799;SHT30;54596;43.216;27.904;2023-09-19T06:06:13;28.13;59.87
67799;SHT30;54596;43.216;27.904;2023-09-19T06:08:39;28.57;59.09
67799;SHT30;54596;43.216;27.904;2023-09-19T06:11:05;28.79;58.50
67799;SHT30;54596;43.216;27.904;2023-09-19T06:13:34;29.07;58.11
67799;SHT30;54596;43.216;27.904;2023-09-19T06:16:00;29.58;57.01
67799;SHT30;54596;43.216;27.904;2023-09-19T06:18:32;30.16;56.13
67799;SHT30;54596;43.216;27.904;2023-09-19T06:21:01;30.62;55.69
67799;SHT30;54596;43.216;27.904;2023-09-19T06:23:30;30.89;54.54
67799;SHT30;54596;43.216;27.904;2023-09-19T06:25:56;30.87;54.48
67799;SHT30;54596;43.216;27.904;2023-09-19T06:28:23;31.13;54.18
67799;SHT30;54596;43.216;27.904;2023-09-19T06:30:51;31.19;54.52
67799;SHT30;54596;43.216;27.904;2023-09-19T06:33:17;31.71;53.60
67799;SHT30;54596;43.216;27.904;2023-09-19T06:35:43;31.94;53.19
67799;SHT30;54596;43.216;27.904;2023-09-19T06:38:13;31.97;53.23
67799;SHT30;54596;43.216;27.904;2023-09-19T06:40:40;32.03;52.81
67799;SHT30;54596;43.216;27.904;2023-09-19T06:43:10;32.50;52.38
67799;SHT30;54596;43.216;27.904;2023-09-19T06:45:35;32.78;52.07
67799;SHT30;54596;43.216;27.904;2023-09-19T06:48:01;33.19;51.32
67799;SHT30;54596;43.216;27.904;2023-09-19T06:50:28;33.37;50.48
67799;SHT30;54596;43.216;27.904;2023-09-19T06:52:56;33.68;50.27
67799;SHT30;54596;43.216;27.904;2023-09-19T06:55:22;33.53;50.10
67799;SHT30;54596;43.216;27.904;2023-09-19T06:57:53;33.31;50.68
67799;SHT30;54596;43.216;27.904;2023-09-19T07:00:21;33.17;51.02
67799;SHT30;54596;43.216;27.904;2023-09-19T07:03:01;32.45;52.26
67799;SHT30;54596;43.216;27.904;2023-09-19T07:05:29;31.69;53.28
67799;SHT30;54596;43.216;27.904;2023-09-19T07:07:57;31.92;53.43
67799;SHT30;54596;43.216;27.904;2023-09-19T07:10:27;31.41;54.25
67799;SHT30;54596;43.216;27.904;2023-09-19T07:13:14;31.73;54.05
67799;SHT30;54596;43.216;27.904;2023-09-19T07:15:43;31.07;54.74
67799;SHT30;54596;43.216;27.904;2023-09-19T07:18:15;32.13;53.28
67799;SHT30;54596;43.216;27.904;2023-09-19T07:20:42;32.57;52.79
67799;SHT30;54596;43.216;27.904;2023-09-19T07:23:15;33.24;51.18
67799;SHT30;54596;43.216;27.904;2023-09-19T07:25:41;33.93;50.14
67799;SHT30;54596;43.216;27.904;2023-09-19T07:28:06;34.82;48.15
67799;SHT30;54596;43.216;27.904;2023-09-19T07:30:32;35.19;48.00
67799;SHT30;54596;43.216;27.904;2023-09-19T07:32:57;35.84;46.57
67799;SHT30;54596;43.216;27.904;2023-09-19T07:35:23;35.86;46.03
67799;SHT30;54596;43.216;27.904;2023-09-19T07:37:49;35.19;47.09
67799;SHT30;54596;43.216;27.904;2023-09-19T07:40:15;36.05;46.06
67799;SHT30;54596;43.216;27.904;2023-09-19T07:42:41;36.60;45.49
67799;SHT30;54596;43.216;27.904;2023-09-19T07:45:07;36.58;45.27
67799;SHT30;54596;43.216;27.904;2023-09-19T07:47:33;36.29;45.54
67799;SHT30;54596;43.216;27.904;2023-09-19T07:49:59;36.74;45.13
67799;SHT30;54596;43.216;27.904;2023-09-19T07:52:28;36.82;44.93
67799;SHT30;54596;43.216;27.904;2023-09-19T07:54:54;37.51;43.93
67799;SHT30;54596;43.216;27.904;2023-09-19T07:57:20;37.72;41.86
67799;SHT30;54596;43.216;27.904;2023-09-19T07:59:45;37.67;42.46
67799;SHT30;54596;43.216;27.904;2023-09-19T08:02:11;38.04;42.34
67799;SHT30;54596;43.216;27.904;2023-09-19T08:04:45;37.50;43.57
67799;SHT30;54596;43.216;27.904;2023-09-19T08:07:14;36.89;45.07
67799;SHT30;54596;43.216;27.904;2023-09-19T08:09:40;36.09;45.02
67799;SHT30;54596;43.216;27.904;2023-09-19T08:12:06;36.00;44.40
67799;SHT30;54596;43.216;27.904;2023-09-19T08:14:36;35.71;45.48
67799;SHT30;54596;43.216;27.904;2023-09-19T08:17:01;34.09;46.55
67799;SHT30;54596;43.216;27.904;2023-09-19T08:19:27;33.57;46.49
67799;SHT30;54596;43.216;27.904;2023-09-19T08:22:00;33.21;47.52
67799;SHT30;54596;43.216;27.904;2023-09-19T08:24:29;32.65;49.31
67799;SHT30;54596;43.216;27.904;2023-09-19T08:26:56;31.71;49.97
67799;SHT30;54596;43.216;27.904;2023-09-19T08:29:23;30.97;50.05
67799;SHT30;54596;43.216;27.904;2023-09-19T08:31:58;30.72;51.82
67799;SHT30;54596;43.216;27.904;2023-09-19T08:34:24;29.79;53.14
67799;SHT30;54596;43.216;27.904;2023-09-19T08:36:54;30.03;52.45
67799;SHT30;54596;43.216;27.904;2023-09-19T08:39:23;29.24;54.71
67799;SHT30;54596;43.216;27.904;2023-09-19T08:41:49;29.20;54.39
67799;SHT30;54596;43.216;27.904;2023-09-19T08:44:15;29.10;54.88
67799;SHT30;54596;43.216;27.904;2023-09-19T08:46:41;28.58;56.11
67799;SHT30;54596;43.216;27.904;2023-09-19T08:49:21;28.38;56.19
67799;SHT30;54596;43.216;27.904;2023-09-19T08:51:54;28.24;56.63
67799;SHT30;54596;43.216;27.904;2023-09-19T08:54:25;27.72;56.28
67799;SHT30;54596;43.216;27.904;2023-09-19T08:56:54;27.71;57.42
67799;SHT30;54596;43.216;27.904;2023-09-19T08:59:22;27.43;58.40
67799;SHT30;54596;43.216;27.904;2023-09-19T09:01:55;27.58;57.99
67799;SHT30;54596;43.216;27.904;2023-09-19T09:04:22;27.34;58.60
67799;SHT30;54596;43.216;27.904;2023-09-19T09:06:49;27.23;58.77
67799;SHT30;54596;43.216;27.904;2023-09-19T09:09:19;26.76;60.79
67799;SHT30;54596;43.216;27.904;2023-09-19T09:11:45;26.45;61.30
67799;SHT30;54596;43.216;27.904;2023-09-19T09:14:11;26.30;62.17
67799;SHT30;54596;43.216;27.904;2023-09-19T09:16:38;26.23;61.12
67799;SHT30;54596;43.216;27.904;2023-09-19T09:19:04;26.24;60.70
67799;SHT30;54596;43.216;27.904;2023-09-19T09:21:30;26.23;61.45
67799;SHT30;54596;43.216;27.904;2023-09-19T09:24:29;26.24;61.38
67799;SHT30;54596;43.216;27.904;2023-09-19T09:26:57;26.24;61.51
67799;SHT30;54596;43.216;27.904;2023-09-19T09:29:47;26.10;60.39
67799;SHT30;54596;43.216;27.904;2023-09-19T09:32:25;26.04;61.52
67799;SHT30;54596;43.216;27.904;2023-09-19T09:34:59;25.92;61.38
67799;SHT30;54596;43.216;27.904;2023-09-19T09:37:25;25.99;62.12
67799;SHT30;54596;43.216;27.904;2023-09-19T09:39:58;25.96;62.62
67799;SHT30;54596;43.216;27.904;2023-09-19T09:42:34;25.86;62.75
67799;SHT30;54596;43.216;27.904;2023-09-19T09:45:22;25.74;62.38
67799;SHT30;54596;43.216;27.904;2023-09-19T09:48:03;25.71;63.98
67799;SHT30;54596;43.216;27.904;2023-09-19T09:50:33;25.41;63.43
67799;SHT30;54596;43.216;27.904;2023-09-19T09:53:31;25.13;64.54
67799;SHT30;54596;43.216;27.904;2023-09-19T09:58:28;24.98;65.17
67799;SHT30;54596;43.216;27.904;2023-09-19T10:01:04;24.88;66.22
67799;SHT30;54596;43.216;27.904;2023-09-19T10:03:39;24.89;65.17
67799;SHT30;54596;43.216;27.904;2023-09-19T10:06:13;24.95;64.98
67799;SHT30;54596;43.216;27.904;2023-09-19T10:08:58;25.06;65.22
67799;SHT30;54596;43.216;27.904;2023-09-19T10:14:09;25.13;64.59
67799;SHT30;54596;43.216;27.904;2023-09-19T10:16:40;25.28;65.12
67799;SHT30;54596;43.216;27.904;2023-09-19T10:19:07;25.38;64.62
67799;SHT30;54596;43.216;27.904;2023-09-19T10:21:37;25.34;65.01
67799;SHT30;54596;43.216;27.904;2023-09-19T10:24:05;25.35;66.28
67799;SHT30;54596;43.216;27.904;2023-09-19T10:26:34;25.28;65.53
67799;SHT30;54596;43.216;27.904;2023-09-19T10:29:03;24.88;66.51
67799;SHT30;54596;43.216;27.904;2023-09-19T10:31:32;24.78;67.07
67799;SHT30;54596;43.216;27.904;2023-09-19T10:34:03;24.71;67.97
67799;SHT30;54596;43.216;27.904;2023-09-19T10:36:32;24.75;68.30
67799;SHT30;54596;43.216;27.904;2023-09-19T10:39:02;24.79;68.30
67799;SHT30;54596;43.216;27.904;2023-09-19T10:41:32;24.71;68.09
67799;SHT30;54596;43.216;27.904;2023-09-19T10:44:03;24.83;67.90
67799;SHT30;54596;43.216;27.904;2023-09-19T10:46:34;24.95;68.21
67799;SHT30;54596;43.216;27.904;2023-09-19T10:49:00;24.92;68.13
67799;SHT30;54596;43.216;27.904;2023-09-19T10:51:31;24.96;67.69
67799;SHT30;54596;43.216;27.904;2023-09-19T10:54:17;24.89;68.13
67799;SHT30;54596;43.216;27.904;2023-09-19T10:56:47;24.72;68.11
67799;SHT30;54596;43.216;27.904;2023-09-19T10:59:15;24.69;68.56
67799;SHT30;54596;43.216;27.904;2023-09-19T11:01:43;24.86;68.84
67799;SHT30;54596;43.216;27.904;2023-09-19T11:04:34;24.71;68.92
67799;SHT30;54596;43.216;27.904;2023-09-19T11:07:11;24.79;68.96
67799;SHT30;54596;43.216;27.904;2023-09-19T11:09:50;24.88;69.06
67799;SHT30;54596;43.216;27.904;2023-09-19T11:15:02;24.67;69.67
67799;SHT30;54596;43.216;27.904;2023-09-19T11:17:42;24.85;69.54
67799;SHT30;54596;43.216;27.904;2023-09-19T11:30:46;24.51;70.95
67799;SHT30;54596;43.216;27.904;2023-09-19T11:33:25;24.53;71.04
67799;SHT30;54596;43.216;27.904;2023-09-19T11:36:07;24.69;71.22
67799;SHT30;54596;43.216;27.904;2023-09-19T11:43:46;24.53;72.18
67799;SHT30;54596;43.216;27.904;2023-09-19T11:46:12;24.68;72.26
67799;SHT30;54596;43.216;27.904;2023-09-19T11:48:43;24.58;72.64
67799;SHT30;54596;43.216;27.904;2023-09-19T11:51:11;24.57;72.43
67799;SHT30;54596;43.216;27.904;2023-09-19T11:53:48;24.67;69.45
67799;SHT30;54596;43.216;27.904;2023-09-19T11:56:18;24.69;71.11
67799;SHT30;54596;43.216;27.904;2023-09-19T11:58:45;24.75;70.89
67799;SHT30;54596;43.216;27.904;2023-09-19T12:01:13;24.79;71.37
67799;SHT30;54596;43.216;27.904;2023-09-19T12:03:42;24.51;71.05
67799;SHT30;54596;43.216;27.904;2023-09-19T12:06:16;24.38;71.75
67799;SHT30;54596;43.216;27.904;2023-09-19T12:08:43;24.48;71.36
67799;SHT30;54596;43.216;27.904;2023-09-19T12:11:17;24.54;71.91
67799;SHT30;54596;43.216;27.904;2023-09-19T12:13:44;24.48;71.94
67799;SHT30;54596;43.216;27.904;2023-09-19T12:16:17;24.41;72.02
67799;SHT30;54596;43.216;27.904;2023-09-19T12:18:47;24.20;71.19
67799;SHT30;54596;43.216;27.904;2023-09-19T12:21:29;24.19;71.84
67799;SHT30;54596;43.216;27.904;2023-09-19T12:24:14;24.17;72.71
67799;SHT30;54596;43.216;27.904;2023-09-19T12:26:45;24.29;72.92
67799;SHT30;54596;43.216;27.904;2023-09-19T12:29:16;24.31;72.49
67799;SHT30;54596;43.216;27.904;2023-09-19T12:31:53;24.38;71.88
67799;SHT30;54596;43.216;27.904;2023-09-19T12:34:30;24.43;71.83
67799;SHT30;54596;43.216;27.904;2023-09-19T12:39:42;24.36;72.17
67799;SHT30;54596;43.216;27.904;2023-09-19T12:42:11;24.41;71.56
67799;SHT30;54596;43.216;27.904;2023-09-19T12:44:45;24.37;71.87
67799;SHT30;54596;43.216;27.904;2023-09-19T12:47:16;24.34;71.96
67799;SHT30;54596;43.216;27.904;2023-09-19T12:50:14;24.38;72.18
67799;SHT30;54596;43.216;27.904;2023-09-19T12:52:49;24.09;72.47
67799;SHT30;54596;43.216;27.904;2023-09-19T12:55:28;24.13;73.31
67799;SHT30;54596;43.216;27.904;2023-09-19T12:58:11;24.20;73.22
67799;SHT30;54596;43.216;27.904;2023-09-19T13:00:42;24.12;73.55
67799;SHT30;54596;43.216;27.904;2023-09-19T13:05:48;24.12;73.15
67799;SHT30;54596;43.216;27.904;2023-09-19T13:08:37;24.05;73.49
67799;SHT30;54596;43.216;27.904;2023-09-19T13:11:16;23.88;72.95
67799;SHT30;54596;43.216;27.904;2023-09-19T13:13:50;23.99;73.25
67799;SHT30;54596;43.216;27.904;2023-09-19T13:16:20;24.03;73.68
67799;SHT30;54596;43.216;27.904;2023-09-19T13:18:53;24.02;73.91
67799;SHT30;54596;43.216;27.904;2023-09-19T13:21:34;24.06;73.77
67799;SHT30;54596;43.216;27.904;2023-09-19T13:24:24;23.99;73.46
67799;SHT30;54596;43.216;27.904;2023-09-19T13:26:54;24.01;73.59
67799;SHT30;54596;43.216;27.904;2023-09-19T13:29:19;23.99;73.97
67799;SHT30;54596;43.216;27.904;2023-09-19T13:31:48;24.03;74.20
67799;SHT30;54596;43.216;27.904;2023-09-19T13:34:13;23.99;74.23
67799;SHT30;54596;43.216;27.904;2023-09-19T13:36:43;24.01;74.32
67799;SHT30;54596;43.216;27.904;2023-09-19T13:39:09;23.90;74.21
67799;SHT30;54596;43.216;27.904;2023-09-19T13:41:35;23.89;73.82
67799;SHT30;54596;43.216;27.904;2023-09-19T13:44:05;23.86;74.03
67799;SHT30;54596;43.216;27.904;2023-09-19T13:46:31;23.95;74.37
67799;SHT30;54596;43.216;27.904;2023-09-19T13:49:00;23.98;74.24
67799;SHT30;54596;43.216;27.904;2023-09-19T13:51:29;24.06;74.12
67799;SHT30;54596;43.216;27.904;2023-09-19T13:53:55;24.01;73.55
67799;SHT30;54596;43.216;27.904;2023-09-19T13:56:21;24.12;73.22
67799;SHT30;54596;43.216;27.904;2023-09-19T13:58:49;23.89;71.49
67799;SHT30;54596;43.216;27.904;2023-09-19T14:01:15;23.92;71.55
67799;SHT30;54596;43.216;27.904;2023-09-19T14:03:41;23.95;71.40
67799;SHT30;54596;43.216;27.904;2023-09-19T14:06:12;23.88;71.43
67799;SHT30;54596;43.216;27.904;2023-09-19T14:08:38;23.86;70.97
67799;SHT30;54596;43.216;27.904;2023-09-19T14:11:08;23.82;70.60
67799;SHT30;54596;43.216;27.904;2023-09-19T14:13:34;23.69;70.59
67799;SHT30;54596;43.216;27.904;2023-09-19T14:16:06;23.67;70.70
67799;SHT30;54596;43.216;27.904;2023-09-19T14:18:34;23.64;70.76
67799;SHT30;54596;43.216;27.904;2023-09-19T14:21:06;23.68;70.66
67799;SHT30;54596;43.216;27.904;2023-09-19T14:23:35;23.68;70.86
67799;SHT30;54596;43.216;27.904;2023-09-19T14:26:01;23.64;71.22
67799;SHT30;54596;43.216;27.904;2023-09-19T14:28:27;23.65;71.26
67799;SHT30;54596;43.216;27.904;2023-09-19T14:30:54;23.65;71.32
67799;SHT30;54596;43.216;27.904;2023-09-19T14:33:19;23.74;71.69
67799;SHT30;54596;43.216;27.904;2023-09-19T14:35:46;23.79;72.03
67799;SHT30;54596;43.216;27.904;2023-09-19T14:38:11;23.75;72.15
67799;SHT30;54596;43.216;27.904;2023-09-19T14:40:37;23.67;72.54
67799;SHT30;54596;43.216;27.904;2023-09-19T14:43:04;23.65;72.54
67799;SHT30;54596;43.216;27.904;2023-09-19T14:45:29;23.62;72.25
67799;SHT30;54596;43.216;27.904;2023-09-19T14:47:56;23.48;72.43
67799;SHT30;54596;43.216;27.904;2023-09-19T14:50:22;23.47;72.23
67799;SHT30;54596;43.216;27.904;2023-09-19T14:52:48;23.43;72.14
67799;SHT30;54596;43.216;27.904;2023-09-19T14:55:16;23.34;72.15
67799;SHT30;54596;43.216;27.904;2023-09-19T14:57:42;23.36;72.12
67799;SHT30;54596;43.216;27.904;2023-09-19T15:00:11;23.37;71.83
67799;SHT30;54596;43.216;27.904;2023-09-19T15:02:38;23.37;71.83
67799;SHT30;54596;43.216;27.904;2023-09-19T15:05:06;23.41;71.69
67799;SHT30;54596;43.216;27.904;2023-09-19T15:07:35;23.34;71.94
67799;SHT30;54596;43.216;27.904;2023-09-19T15:10:02;23.36;71.99
67799;SHT30;54596;43.216;27.904;2023-09-19T15:12:32;23.28;71.60
67799;SHT30;54596;43.216;27.904;2023-09-19T15:14:58;23.24;71.54
67799;SHT30;54596;43.216;27.904;2023-09-19T15:17:23;23.23;71.56
67799;SHT30;54596;43.216;27.904;2023-09-19T15:19:50;23.17;71.53
67799;SHT30;54596;43.216;27.904;2023-09-19T15:22:16;23.16;71.79
67799;SHT30;54596;43.216;27.904;2023-09-19T15:24:42;23.16;71.94
67799;SHT30;54596;43.216;27.904;2023-09-19T15:27:07;23.13;72.20
67799;SHT30;54596;43.216;27.904;2023-09-19T15:29:33;23.13;72.31
67799;SHT30;54596;43.216;27.904;2023-09-19T15:31:58;23.09;72.35
67799;SHT30;54596;43.216;27.904;2023-09-19T15:34:27;23.09;72.67
67799;SHT30;54596;43.216;27.904;2023-09-19T15:36:53;23.02;72.72
67799;SHT30;54596;43.216;27.904;2023-09-19T15:39:19;22.96;72.49
67799;SHT30;54596;43.216;27.904;2023-09-19T15:41:48;22.96;72.52
67799;SHT30;54596;43.216;27.904;2023-09-19T15:44:18;22.99;72.59
67799;SHT30;54596;43.216;27.904;2023-09-19T15:46:44;23.02;72.43
67799;SHT30;54596;43.216;27.904;2023-09-19T15:49:14;22.92;72.56
67799;SHT30;54596;43.216;27.904;2023-09-19T15:51:40;22.92;72.65
67799;SHT30;54596;43.216;27.904;2023-09-19T15:54:08;22.91;72.70
67799;SHT30;54596;43.216;27.904;2023-09-19T15:56:34;22.85;72.74
67799;SHT30;54596;43.216;27.904;2023-09-19T15:59:00;22.84;72.67
67799;SHT30;54596;43.216;27.904;2023-09-19T16:01:26;22.78;72.79
67799;SHT30;54596;43.216;27.904;2023-09-19T16:03:53;22.76;72.87
67799;SHT30;54596;43.216;27.904;2023-09-19T16:06:21;22.72;72.41
67799;SHT30;54596;43.216;27.904;2023-09-19T16:08:50;22.68;72.61
67799;SHT30;54596;43.216;27.904;2023-09-19T16:11:19;22.67;72.42
67799;SHT30;54596;43.216;27.904;2023-09-19T16:13:48;22.64;72.57